createdAt,value
2017-08-15T00:01:50.885Z,9.13
2017-08-15T00:04:25.517Z,6.67
2017-08-15T00:07:00.089Z,6.03
2017-08-15T00:09:34.671Z,7.13
2017-08-15T00:12:10.007Z,6.77
2017-08-15T00:14:44.578Z,6.57
2017-08-15T00:17:19.098Z,6.80
2017-08-15T00:19:53.717Z,6.70
2017-08-15T00:22:28.314Z,8.50
2017-08-15T00:25:02.982Z,7.00
2017-08-15T00:27:37.537Z,7.53
2017-08-15T00:30:21.238Z,10.07
2017-08-15T00:32:55.695Z,13.00
2017-08-15T00:35:30.339Z,7.60
2017-08-15T00:38:04.893Z,10.93
2017-08-15T00:40:40.230Z,13.07
2017-08-15T00:43:14.838Z,8.47
2017-08-15T00:45:56.520Z,8.30
2017-08-15T00:48:30.578Z,8.73
2017-08-15T00:51:05.265Z,8.73
2017-08-15T00:53:39.901Z,9.23
2017-08-15T00:56:14.482Z,7.87
2017-08-15T00:58:48.925Z,11.07
2017-08-15T01:01:23.487Z,9.17
2017-08-15T01:03:57.930Z,8.73
2017-08-15T01:06:32.506Z,20.73
2017-08-15T01:09:07.065Z,9.20
2017-08-15T01:11:41.573Z,13.03
2017-08-15T01:14:16.077Z,13.83
2017-08-15T01:16:50.582Z,9.20
2017-08-15T01:19:25.018Z,9.63
2017-08-15T01:21:59.330Z,11.47
2017-08-15T01:24:33.786Z,9.57
2017-08-15T01:27:08.774Z,11.97
2017-08-15T01:29:43.382Z,10.87
2017-08-15T01:32:18.002Z,14.23
2017-08-15T01:34:53.206Z,9.90
2017-08-15T01:37:26.978Z,9.57
2017-08-15T01:40:01.601Z,9.73
2017-08-15T01:42:36.198Z,9.97
2017-08-15T01:48:02.535Z,10.60
2017-08-15T01:53:24.467Z,9.00
2017-08-15T01:55:59.030Z,9.50
2017-08-15T01:58:33.464Z,8.50
2017-08-15T02:01:08.085Z,10.37
2017-08-15T02:03:43.871Z,9.93
2017-08-15T02:06:18.469Z,12.00
2017-08-15T02:08:53.162Z,10.47
2017-08-15T02:11:28.498Z,9.37
2017-08-15T02:14:03.122Z,12.23
2017-08-15T02:16:37.601Z,10.47
2017-08-15T02:19:12.189Z,11.30
2017-08-15T02:21:46.769Z,9.67
2017-08-15T02:24:21.294Z,12.40
2017-08-15T02:26:55.854Z,10.77
2017-08-15T02:29:30.282Z,15.60
2017-08-15T02:32:04.790Z,8.90
2017-08-15T02:34:39.402Z,14.37
2017-08-15T02:37:14.149Z,15.47
2017-08-15T02:39:48.611Z,9.40
2017-08-15T02:42:23.224Z,9.23
2017-08-15T02:44:57.764Z,9.23
2017-08-15T02:47:32.302Z,9.37
2017-08-15T02:50:06.753Z,11.50
2017-08-15T02:52:41.390Z,15.13
2017-08-15T02:55:36.018Z,14.20
2017-08-15T02:58:10.456Z,13.93
2017-08-15T03:00:56.933Z,9.50
2017-08-15T03:03:31.478Z,12.23
2017-08-15T03:06:06.069Z,14.80
2017-08-15T03:08:40.713Z,10.50
2017-08-15T03:11:15.246Z,15.70
2017-08-15T03:13:49.813Z,10.87
2017-08-15T03:16:24.357Z,13.00
2017-08-15T03:18:58.846Z,11.03
2017-08-15T03:21:33.718Z,10.13
2017-08-15T03:24:08.334Z,11.10
2017-08-15T03:26:42.969Z,10.70
2017-08-15T03:29:17.401Z,15.30
2017-08-15T03:31:52.016Z,9.53
2017-08-15T03:34:27.326Z,11.37
2017-08-15T03:37:01.761Z,12.60
2017-08-15T03:39:36.386Z,11.57
2017-08-15T03:42:10.932Z,18.50
2017-08-15T03:44:45.411Z,10.17
2017-08-15T03:47:19.975Z,12.40
2017-08-15T03:49:54.581Z,22.53
2017-08-15T03:52:29.210Z,11.93
2017-08-15T03:55:03.749Z,20.00
2017-08-15T03:57:38.394Z,11.17
2017-08-15T04:00:26.198Z,11.83
2017-08-15T04:03:00.799Z,12.97
2017-08-15T04:05:35.290Z,11.03
2017-08-15T04:08:09.830Z,11.60
2017-08-15T04:10:56.483Z,12.20
2017-08-15T04:13:31.017Z,13.10
2017-08-15T04:16:05.622Z,16.67
2017-08-15T04:18:40.261Z,12.47
2017-08-15T04:21:14.834Z,13.43
2017-08-15T04:23:49.595Z,13.43
2017-08-15T04:26:24.210Z,15.63
2017-08-15T04:28:58.778Z,13.53
2017-08-15T04:31:33.378Z,12.93
2017-08-15T04:34:07.818Z,16.13
2017-08-15T04:36:42.365Z,14.10
2017-08-15T04:39:16.854Z,15.03
2017-08-15T04:41:51.449Z,16.63
2017-08-15T04:44:26.017Z,13.33
2017-08-15T04:47:00.658Z,13.10
2017-08-15T04:49:35.200Z,11.20
2017-08-15T04:52:09.827Z,14.90
2017-08-15T04:54:44.321Z,18.00
2017-08-15T04:57:18.859Z,12.47
2017-08-15T04:59:53.479Z,12.53
2017-08-15T05:02:28.110Z,13.33
2017-08-15T05:05:02.890Z,15.07
2017-08-15T05:07:37.365Z,20.63
2017-08-15T05:10:21.630Z,12.97
2017-08-15T05:12:56.276Z,18.17
2017-08-15T05:15:30.842Z,13.40
2017-08-15T05:18:05.405Z,23.20
2017-08-15T05:20:40.033Z,18.27
2017-08-15T05:23:14.626Z,15.63
2017-08-15T05:25:49.453Z,17.77
2017-08-15T05:28:24.097Z,13.33
2017-08-15T05:30:58.732Z,17.07
2017-08-15T05:33:33.233Z,14.30
2017-08-15T05:36:07.844Z,31.13
2017-08-15T05:38:43.369Z,17.60
2017-08-15T05:41:19.614Z,11.70
2017-08-15T05:43:54.177Z,12.70
2017-08-15T05:46:28.821Z,15.80
2017-08-15T05:49:03.414Z,28.70
2017-08-15T05:51:37.985Z,11.27
2017-08-15T05:54:12.594Z,16.63
2017-08-15T05:56:47.190Z,19.17
2017-08-15T05:59:21.696Z,14.13
2017-08-15T06:01:56.271Z,12.60
2017-08-15T06:04:30.902Z,17.33
2017-08-15T06:07:05.510Z,23.67
2017-08-15T06:09:40.258Z,14.10
2017-08-15T06:12:14.797Z,13.53
2017-08-15T06:14:49.366Z,14.30
2017-08-15T06:17:23.886Z,18.90
2017-08-15T06:19:58.406Z,19.13
2017-08-15T06:22:33.786Z,17.93
2017-08-15T06:25:08.341Z,14.93
2017-08-15T06:27:42.805Z,15.80
2017-08-15T06:30:17.245Z,13.23
2017-08-15T06:32:52.012Z,13.80
2017-08-15T06:35:27.547Z,11.30
2017-08-15T06:38:02.009Z,15.20
2017-08-15T06:40:36.645Z,15.03
2017-08-15T06:43:11.269Z,12.80
2017-08-15T06:45:50.866Z,15.40
2017-08-15T06:48:25.409Z,12.60
2017-08-15T06:53:59.641Z,12.53
2017-08-15T06:56:34.244Z,11.00
2017-08-15T06:59:08.849Z,12.27
2017-08-15T07:01:44.041Z,11.43
2017-08-15T07:04:18.742Z,13.07
2017-08-15T07:06:53.331Z,14.53
2017-08-15T07:09:27.871Z,11.63
2017-08-15T07:12:02.454Z,12.73
2017-08-15T07:14:36.906Z,14.70
2017-08-15T07:17:11.418Z,14.77
2017-08-15T07:19:45.909Z,20.07
2017-08-15T07:22:20.474Z,12.47
2017-08-15T07:24:55.033Z,14.10
2017-08-15T07:27:29.666Z,11.40
2017-08-15T07:30:04.193Z,12.70
2017-08-15T07:32:38.771Z,11.03
2017-08-15T07:35:32.014Z,11.60
2017-08-15T07:38:06.438Z,21.33
2017-08-15T07:40:41.020Z,11.37
2017-08-15T07:43:15.600Z,11.37
2017-08-15T07:45:50.193Z,15.10
2017-08-15T07:48:24.765Z,14.70
2017-08-15T07:51:05.316Z,10.03
2017-08-15T07:53:39.860Z,11.00
2017-08-15T07:56:14.367Z,12.27
2017-08-15T07:58:49.014Z,7.80
2017-08-15T08:01:23.614Z,12.73
2017-08-15T08:03:58.150Z,18.23
2017-08-15T08:06:32.694Z,15.13
2017-08-15T08:09:07.258Z,12.20
2017-08-15T08:11:41.849Z,23.37
2017-08-15T08:14:16.359Z,8.50
2017-08-15T08:16:50.958Z,18.97
2017-08-15T08:19:25.489Z,11.17
2017-08-15T08:21:59.678Z,12.17
2017-08-15T08:24:34.245Z,12.80
2017-08-15T08:27:08.814Z,9.23
2017-08-15T08:29:43.424Z,10.20
2017-08-15T08:32:18.062Z,11.47
2017-08-15T08:34:52.524Z,8.00
2017-08-15T08:37:27.065Z,8.20
2017-08-15T08:40:01.695Z,7.43
2017-08-15T08:42:36.228Z,11.50
2017-08-15T08:45:11.562Z,8.47
2017-08-15T08:47:45.734Z,10.30
2017-08-15T08:50:30.929Z,7.97
2017-08-15T08:53:05.967Z,12.30
2017-08-15T08:55:41.026Z,6.80
2017-08-15T08:58:18.364Z,6.53
2017-08-15T09:00:55.033Z,7.13
2017-08-15T09:03:29.655Z,7.00
2017-08-15T09:06:04.242Z,5.47
2017-08-15T09:08:38.654Z,5.47
2017-08-15T09:11:13.159Z,6.13
2017-08-15T09:13:47.626Z,5.63
2017-08-15T09:16:22.037Z,6.50
2017-08-15T09:18:58.107Z,6.77
2017-08-15T09:21:32.740Z,4.57
2017-08-15T09:24:07.222Z,12.40
2017-08-15T09:26:42.569Z,9.53
2017-08-15T09:29:16.818Z,10.07
2017-08-15T09:31:51.176Z,6.40
2017-08-15T09:34:26.522Z,6.40
2017-08-15T09:37:00.762Z,5.00
2017-08-15T09:39:35.270Z,4.83
2017-08-15T09:42:10.498Z,4.00
2017-08-15T09:44:44.729Z,4.03
2017-08-15T09:47:19.345Z,3.27
2017-08-15T09:49:53.982Z,16.03
2017-08-15T09:52:28.615Z,3.73
2017-08-15T09:55:03.068Z,6.83
2017-08-15T09:57:37.584Z,5.37
2017-08-15T10:00:12.194Z,3.10
2017-08-15T10:02:46.769Z,3.73
2017-08-15T10:05:28.434Z,4.17
2017-08-15T10:08:02.926Z,6.60
2017-08-15T10:10:37.472Z,4.10
2017-08-15T10:13:11.896Z,3.63
2017-08-15T10:15:46.198Z,3.20
2017-08-15T10:18:20.758Z,3.80
2017-08-15T10:20:55.114Z,5.47
2017-08-15T10:23:29.741Z,3.53
2017-08-15T10:26:04.285Z,3.57
2017-08-15T10:28:38.857Z,7.43
2017-08-15T10:31:13.442Z,3.27
2017-08-15T10:33:47.885Z,5.27
2017-08-15T10:36:30.143Z,3.57
2017-08-15T10:39:05.186Z,3.10
2017-08-15T10:41:39.878Z,12.33
2017-08-15T10:44:14.451Z,4.87
2017-08-15T10:46:49.799Z,2.63
2017-08-15T10:49:24.420Z,2.47
2017-08-15T10:51:58.929Z,3.13
2017-08-15T10:54:33.307Z,3.67
2017-08-15T10:57:07.670Z,2.50
2017-08-15T10:59:42.002Z,3.17
2017-08-15T11:02:16.554Z,6.10
2017-08-15T11:04:51.146Z,3.97
2017-08-15T11:07:25.686Z,3.07
2017-08-15T11:10:00.178Z,2.57
2017-08-15T11:12:34.950Z,6.20
2017-08-15T11:15:19.876Z,3.70
2017-08-15T11:17:54.646Z,2.33
2017-08-15T11:20:29.957Z,4.50
2017-08-15T11:23:05.161Z,2.37
2017-08-15T11:25:39.815Z,5.43
2017-08-15T11:28:15.321Z,2.87
2017-08-15T11:30:49.821Z,4.60
2017-08-15T11:33:24.601Z,2.40
2017-08-15T11:35:59.051Z,2.70
2017-08-15T11:38:33.594Z,1.50
2017-08-15T11:41:08.213Z,2.90
2017-08-15T11:43:42.802Z,3.20
2017-08-15T11:46:17.283Z,2.07
2017-08-15T11:48:52.296Z,3.87
2017-08-15T11:51:26.858Z,4.07
2017-08-15T11:54:01.447Z,1.90
2017-08-15T11:56:35.953Z,2.60
2017-08-15T11:59:10.374Z,2.70
2017-08-15T12:01:45.013Z,2.70
2017-08-15T12:04:19.673Z,2.60
2017-08-15T12:06:53.995Z,2.50
2017-08-15T12:09:29.277Z,2.13
2017-08-15T12:12:03.791Z,2.60
2017-08-15T12:14:38.102Z,2.80
2017-08-15T12:17:12.653Z,1.97
2017-08-15T12:19:47.234Z,6.17
2017-08-15T12:22:21.838Z,2.47
2017-08-15T12:24:56.513Z,2.67
2017-08-15T12:27:31.466Z,2.30
2017-08-15T12:30:06.046Z,1.93
2017-08-15T12:32:40.662Z,1.80
2017-08-15T12:35:34.590Z,6.00
2017-08-15T12:38:09.101Z,3.93
2017-08-15T12:41:00.338Z,2.20
2017-08-15T12:43:34.894Z,4.40
2017-08-15T12:46:12.062Z,3.67
2017-08-15T12:48:46.659Z,2.03
2017-08-15T12:51:21.223Z,2.20
2017-08-15T12:53:55.684Z,5.63
2017-08-15T12:56:30.249Z,1.70
2017-08-15T12:59:05.541Z,2.27
2017-08-15T13:01:40.828Z,2.23
2017-08-15T13:04:15.394Z,2.30
2017-08-15T13:06:49.870Z,4.67
2017-08-15T13:09:24.485Z,5.10
2017-08-15T13:14:42.894Z,1.70
2017-08-15T13:17:17.466Z,3.27
2017-08-15T13:19:52.774Z,2.90
2017-08-15T13:22:27.294Z,2.53
2017-08-15T13:25:01.618Z,1.93
2017-08-15T13:27:36.034Z,1.93
2017-08-15T13:30:15.550Z,1.90
2017-08-15T13:32:49.958Z,1.90
2017-08-15T13:35:37.085Z,1.97
2017-08-15T13:38:11.341Z,2.00
2017-08-15T13:40:45.651Z,1.97
2017-08-15T13:43:20.142Z,1.80
2017-08-15T13:45:55.211Z,2.00
2017-08-15T13:48:29.441Z,1.70
2017-08-15T13:51:03.938Z,1.70
2017-08-15T13:53:38.421Z,2.10
2017-08-15T13:56:12.978Z,1.70
2017-08-15T13:58:47.221Z,3.17
2017-08-15T14:01:21.534Z,1.60
2017-08-15T14:03:55.926Z,3.37
2017-08-15T14:06:31.582Z,1.80
2017-08-15T14:09:05.937Z,2.23
2017-08-15T14:11:40.350Z,3.23
2017-08-15T14:14:14.651Z,2.00
2017-08-15T14:16:49.081Z,4.10
2017-08-15T14:19:23.434Z,3.00
2017-08-15T14:21:57.813Z,3.53
2017-08-15T14:24:32.134Z,2.40
2017-08-15T14:27:06.784Z,4.47
2017-08-15T14:29:41.221Z,2.23
2017-08-15T14:32:16.102Z,1.67
2017-08-15T14:34:50.546Z,2.60
2017-08-15T14:37:25.018Z,2.50
2017-08-15T14:39:59.270Z,2.07
2017-08-15T14:42:33.606Z,2.37
2017-08-15T14:45:10.802Z,4.20
2017-08-15T14:47:45.254Z,2.33
2017-08-15T14:50:19.622Z,2.17
2017-08-15T14:52:53.881Z,4.00
2017-08-15T14:55:28.277Z,2.20
2017-08-15T14:58:02.754Z,3.53
2017-08-15T15:00:37.114Z,2.37
2017-08-15T15:03:11.444Z,1.90
2017-08-15T15:05:45.783Z,2.07
2017-08-15T15:08:20.937Z,1.83
2017-08-15T15:10:54.980Z,3.83
2017-08-15T15:13:29.282Z,4.20
2017-08-15T15:16:03.652Z,2.50
2017-08-15T15:18:37.934Z,2.10
2017-08-15T15:21:12.237Z,9.83
2017-08-15T15:23:46.750Z,2.13
2017-08-15T15:26:21.097Z,2.60
2017-08-15T15:28:55.619Z,2.07
2017-08-15T15:31:29.959Z,2.07
2017-08-15T15:34:04.551Z,2.23
2017-08-15T15:36:39.114Z,3.80
2017-08-15T15:39:13.909Z,3.27
2017-08-15T15:41:48.451Z,3.43
2017-08-15T15:44:22.710Z,4.53
2017-08-15T15:46:57.281Z,2.23
2017-08-15T15:49:31.766Z,2.73
2017-08-15T15:52:06.377Z,1.97
2017-08-15T15:54:40.698Z,2.23
2017-08-15T15:57:15.285Z,2.40
2017-08-15T15:59:49.661Z,3.23
2017-08-15T16:02:24.061Z,2.27
2017-08-15T16:04:58.510Z,2.70
2017-08-15T16:07:33.070Z,2.30
2017-08-15T16:10:08.719Z,3.70
2017-08-15T16:12:43.393Z,3.60
2017-08-15T16:15:17.938Z,2.80
2017-08-15T16:17:52.348Z,2.40
2017-08-15T16:20:27.009Z,2.40
2017-08-15T16:23:01.658Z,3.07
2017-08-15T16:25:36.281Z,2.47
2017-08-15T16:28:10.739Z,3.03
2017-08-15T16:30:45.259Z,2.17
2017-08-15T16:33:19.805Z,8.13
2017-08-15T16:35:54.406Z,3.00
2017-08-15T16:38:29.870Z,3.73
2017-08-15T16:41:04.308Z,3.70
2017-08-15T16:43:38.550Z,3.60
2017-08-15T16:46:13.034Z,3.40
2017-08-15T16:48:47.370Z,2.90
2017-08-15T16:51:21.948Z,2.70
2017-08-15T16:53:57.205Z,1.90
2017-08-15T16:56:31.762Z,2.53
2017-08-15T16:59:06.470Z,2.63
2017-08-15T17:01:40.866Z,2.50
2017-08-15T17:04:15.369Z,2.83
2017-08-15T17:06:49.865Z,3.37
2017-08-15T17:09:24.487Z,3.23
2017-08-15T17:11:59.097Z,4.97
2017-08-15T17:14:33.517Z,5.23
2017-08-15T17:17:08.063Z,4.43
2017-08-15T17:19:42.554Z,3.23
2017-08-15T17:22:17.920Z,3.93
2017-08-15T17:24:52.497Z,4.00
2017-08-15T17:27:27.009Z,4.17
2017-08-15T17:30:01.566Z,5.40
2017-08-15T17:32:36.098Z,4.13
2017-08-15T17:35:10.719Z,4.27
2017-08-15T17:37:45.386Z,4.00
2017-08-15T17:40:19.943Z,2.87
2017-08-15T17:42:54.550Z,3.10
2017-08-15T17:45:29.514Z,3.97
2017-08-15T17:48:04.157Z,3.40
2017-08-15T17:50:38.679Z,3.17
2017-08-15T17:53:14.799Z,3.53
2017-08-15T17:55:49.662Z,5.00
2017-08-15T17:58:24.376Z,4.67
2017-08-15T18:00:58.927Z,3.40
2017-08-15T18:03:33.457Z,3.93
2017-08-15T18:06:08.005Z,3.67
2017-08-15T18:08:42.590Z,2.77
2017-08-15T18:11:17.233Z,3.23
2017-08-15T18:13:51.718Z,5.33
2017-08-15T18:16:26.294Z,3.43
2017-08-15T18:19:00.776Z,3.40
2017-08-15T18:21:35.330Z,3.73
2017-08-15T18:24:09.882Z,3.70
2017-08-15T18:26:44.442Z,3.60
2017-08-15T18:29:18.906Z,3.30
2017-08-15T18:31:53.914Z,3.97
2017-08-15T18:34:29.285Z,4.87
2017-08-15T18:37:03.843Z,3.20
2017-08-15T18:39:38.387Z,4.13
2017-08-15T18:42:14.041Z,4.70
2017-08-15T18:44:50.125Z,9.93
2017-08-15T18:47:24.593Z,4.03
2017-08-15T18:49:59.770Z,5.07
2017-08-15T18:52:34.226Z,7.90
2017-08-15T18:55:16.125Z,6.10
2017-08-15T18:57:50.558Z,7.07
2017-08-15T19:00:27.725Z,7.37
2017-08-15T19:03:02.362Z,13.00
2017-08-15T19:05:36.926Z,8.17
2017-08-15T19:08:11.497Z,5.90
2017-08-15T19:10:46.090Z,12.13
2017-08-15T19:13:20.647Z,9.17
2017-08-15T19:15:56.177Z,9.57
2017-08-15T19:18:30.680Z,16.47
2017-08-15T19:21:06.038Z,12.53
2017-08-15T19:23:40.505Z,5.60
2017-08-15T19:26:15.109Z,7.50
2017-08-15T19:28:49.574Z,22.37
2017-08-15T19:31:24.109Z,7.83
2017-08-15T19:33:59.420Z,6.47
2017-08-15T19:36:34.657Z,7.43
2017-08-15T19:39:09.217Z,11.27
2017-08-15T19:41:43.806Z,4.00
2017-08-15T19:44:18.534Z,15.77
2017-08-15T19:46:53.182Z,5.60
2017-08-15T19:49:27.857Z,10.77
2017-08-15T19:52:02.366Z,6.90
2017-08-15T19:54:36.821Z,4.00
2017-08-15T19:57:11.430Z,7.63
2017-08-15T19:59:46.056Z,4.70
2017-08-15T20:02:21.430Z,5.93
2017-08-15T20:04:56.039Z,5.17
2017-08-15T20:07:31.361Z,6.00
2017-08-15T20:10:06.722Z,3.80
2017-08-15T20:12:41.382Z,4.50
2017-08-15T20:15:19.886Z,5.60
2017-08-15T20:17:54.462Z,8.43
2017-08-15T20:20:29.131Z,12.17
2017-08-15T20:23:03.722Z,10.43
2017-08-15T20:25:41.295Z,13.63
2017-08-15T20:28:15.938Z,12.83
2017-08-15T20:30:50.453Z,4.00
2017-08-15T20:33:25.039Z,5.80
2017-08-15T20:35:59.597Z,4.17
2017-08-15T20:38:34.157Z,5.80
2017-08-15T20:41:08.782Z,4.07
2017-08-15T20:43:43.305Z,4.30
2017-08-15T20:46:17.937Z,7.83
2017-08-15T20:48:52.422Z,4.80
2017-08-15T20:51:27.018Z,6.27
2017-08-15T20:54:01.487Z,5.00
2017-08-15T20:56:35.782Z,7.53
2017-08-15T20:59:10.477Z,8.20
2017-08-15T21:01:45.544Z,6.37
2017-08-15T21:04:20.193Z,4.93
2017-08-15T21:06:54.751Z,5.13
2017-08-15T21:09:29.359Z,6.60
2017-08-15T21:12:03.925Z,5.13
2017-08-15T21:14:38.560Z,5.83
2017-08-15T21:17:13.149Z,6.43
2017-08-15T21:19:47.646Z,5.60
2017-08-15T21:22:22.149Z,14.40
2017-08-15T21:24:56.718Z,8.53
2017-08-15T21:27:31.301Z,8.67
2017-08-15T21:30:06.087Z,13.87
2017-08-15T21:32:40.579Z,7.53
2017-08-15T21:35:19.692Z,8.90
2017-08-15T21:37:54.138Z,7.40
2017-08-15T21:40:28.710Z,14.47
2017-08-15T21:43:03.260Z,7.50
2017-08-15T21:45:37.825Z,8.60
2017-08-15T21:48:12.289Z,15.13
2017-08-15T21:50:46.841Z,11.00
2017-08-15T21:53:21.493Z,11.20
2017-08-15T21:55:56.057Z,7.60
2017-08-15T21:58:30.529Z,4.27
2017-08-15T22:01:10.657Z,3.03
2017-08-15T22:03:45.125Z,4.10
2017-08-15T22:06:19.645Z,3.67
2017-08-15T22:08:54.008Z,7.43
2017-08-15T22:11:28.628Z,4.30
2017-08-15T22:14:03.202Z,4.60
2017-08-15T22:16:37.750Z,7.23
2017-08-15T22:19:12.186Z,6.90
2017-08-15T22:21:46.749Z,5.00
2017-08-15T22:24:21.362Z,4.63
2017-08-15T22:26:55.794Z,6.30
2017-08-15T22:29:30.380Z,6.20
2017-08-15T22:32:04.982Z,5.20
2017-08-15T22:34:39.477Z,4.53
2017-08-15T22:37:14.095Z,5.57
2017-08-15T22:39:48.533Z,5.30
2017-08-15T22:42:23.104Z,6.40
2017-08-15T22:44:57.682Z,5.37
2017-08-15T22:47:32.296Z,5.40
2017-08-15T22:50:07.051Z,6.70
2017-08-15T22:52:41.632Z,6.17
2017-08-15T22:55:22.623Z,5.07
2017-08-15T22:58:00.259Z,6.63
2017-08-15T23:00:34.767Z,10.83
2017-08-15T23:03:09.254Z,5.90
2017-08-15T23:05:43.870Z,6.43
2017-08-15T23:08:18.431Z,7.00
2017-08-15T23:10:53.010Z,6.40
2017-08-15T23:13:27.628Z,5.60
2017-08-15T23:16:02.191Z,5.37
2017-08-15T23:18:37.342Z,5.53
2017-08-15T23:21:12.040Z,7.47
2017-08-15T23:23:46.718Z,6.10
2017-08-15T23:26:21.246Z,5.80
2017-08-15T23:28:55.722Z,5.60
2017-08-15T23:31:30.245Z,5.97
2017-08-15T23:34:04.838Z,5.50
2017-08-15T23:36:39.437Z,6.03
2017-08-15T23:39:13.970Z,6.13
2017-08-15T23:41:48.545Z,7.00
2017-08-15T23:44:23.102Z,6.47
2017-08-15T23:46:57.709Z,6.10
2017-08-15T23:49:32.308Z,6.80
2017-08-15T23:52:06.846Z,6.50
2017-08-15T23:54:41.278Z,6.63
2017-08-15T23:57:15.845Z,6.20
2017-08-15T23:59:50.333Z,11.63
